sensor_id;sensor_type;location;lat;lon;timestamp;P1;durP1;ratioP1;P2;durP2;ratioP2
16593;SDS011;8410;52.532;13.336;2023-11-21T00:00:08;14.90;;;12.63;;
16593;SDS011;8410;52.532;13.336;2023-11-21T00:02:39;22.00;;;16.13;;
16593;SDS011;8410;52.532;13.336;2023-11-21T00:05:07;15.67;;;12.47;;
16593;SDS011;8410;52.532;13.336;2023-11-21T00:07:35;18.67;;;14.67;;
16593;SDS011;8410;52.532;13.336;2023-11-21T00:10:03;21.43;;;17.17;;
16593;SDS011;8410;52.532;13.336;2023-11-21T00:12:34;26.30;;;16.07;;
16593;SDS011;8410;52.532;13.336;2023-11-21T00:15:02;25.17;;;19.90;;
16593;SDS011;8410;52.532;13.336;2023-11-21T00:17:33;22.67;;;16.83;;
16593;SDS011;8410;52.532;13.336;2023-11-21T00:20:00;25.27;;;18.07;;
16593;SDS011;8410;52.532;13.336;2023-11-21T00:22:32;28.60;;;20.37;;
16593;SDS011;8410;52.532;13.336;2023-11-21T00:25:00;26.93;;;19.33;;
16593;SDS011;8410;52.532;13.336;2023-11-21T00:27:29;26.97;;;18.13;;
16593;SDS011;8410;52.532;13.336;2023-11-21T00:29:57;31.37;;;19.57;;
16593;SDS011;8410;52.532;13.336;2023-11-21T00:32:24;29.03;;;17.77;;
16593;SDS011;8410;52.532;13.336;2023-11-21T00:34:53;31.53;;;18.97;;
16593;SDS011;8410;52.532;13.336;2023-11-21T00:37:21;35.93;;;21.90;;
16593;SDS011;8410;52.532;13.336;2023-11-21T00:39:50;39.53;;;24.07;;
16593;SDS011;8410;52.532;13.336;2023-11-21T00:42:17;33.60;;;21.97;;
16593;SDS011;8410;52.532;13.336;2023-11-21T00:44:45;45.73;;;26.93;;
16593;SDS011;8410;52.532;13.336;2023-11-21T00:47:12;40.03;;;23.10;;
16593;SDS011;8410;52.532;13.336;2023-11-21T00:49:40;39.60;;;22.73;;
16593;SDS011;8410;52.532;13.336;2023-11-21T00:52:09;40.37;;;23.73;;
16593;SDS011;8410;52.532;13.336;2023-11-21T00:54:36;43.37;;;25.50;;
16593;SDS011;8410;52.532;13.336;2023-11-21T00:57:04;48.53;;;32.43;;
16593;SDS011;8410;52.532;13.336;2023-11-21T00:59:32;49.90;;;27.27;;
16593;SDS011;8410;52.532;13.336;2023-11-21T01:01:59;43.47;;;25.00;;
16593;SDS011;8410;52.532;13.336;2023-11-21T01:04:28;51.73;;;31.27;;
16593;SDS011;8410;52.532;13.336;2023-11-21T01:06:55;66.03;;;34.70;;
16593;SDS011;8410;52.532;13.336;2023-11-21T01:09:24;60.90;;;33.90;;
16593;SDS011;8410;52.532;13.336;2023-11-21T01:11:52;54.90;;;29.90;;
16593;SDS011;8410;52.532;13.336;2023-11-21T01:14:19;45.60;;;25.83;;
16593;SDS011;8410;52.532;13.336;2023-11-21T01:16:47;50.07;;;25.10;;
16593;SDS011;8410;52.532;13.336;2023-11-21T01:19:15;50.53;;;28.10;;
16593;SDS011;8410;52.532;13.336;2023-11-21T01:21:43;42.83;;;24.77;;
16593;SDS011;8410;52.532;13.336;2023-11-21T01:24:10;43.10;;;23.73;;
16593;SDS011;8410;52.532;13.336;2023-11-21T01:26:39;47.43;;;26.13;;
16593;SDS011;8410;52.532;13.336;2023-11-21T01:29:07;40.87;;;23.27;;
16593;SDS011;8410;52.532;13.336;2023-11-21T01:31:34;44.37;;;27.30;;
16593;SDS011;8410;52.532;13.336;2023-11-21T01:34:02;43.40;;;25.77;;
16593;SDS011;8410;52.532;13.336;2023-11-21T01:36:31;44.07;;;25.10;;
16593;SDS011;8410;52.532;13.336;2023-11-21T01:38:59;49.07;;;27.57;;
16593;SDS011;8410;52.532;13.336;2023-11-21T01:41:27;41.00;;;22.00;;
16593;SDS011;8410;52.532;13.336;2023-11-21T01:43:56;43.33;;;21.50;;
16593;SDS011;8410;52.532;13.336;2023-11-21T01:46:24;41.27;;;20.57;;
16593;SDS011;8410;52.532;13.336;2023-11-21T01:48:51;41.97;;;20.43;;
16593;SDS011;8410;52.532;13.336;2023-11-21T01:51:20;43.67;;;22.40;;
16593;SDS011;8410;52.532;13.336;2023-11-21T01:53:47;39.23;;;20.60;;
16593;SDS011;8410;52.532;13.336;2023-11-21T01:56:15;46.33;;;22.63;;
16593;SDS011;8410;52.532;13.336;2023-11-21T01:58:43;39.70;;;20.30;;
16593;SDS011;8410;52.532;13.336;2023-11-21T02:01:11;40.30;;;19.17;;
16593;SDS011;8410;52.532;13.336;2023-11-21T02:03:40;32.43;;;15.70;;
16593;SDS011;8410;52.532;13.336;2023-11-21T02:06:08;31.77;;;19.90;;
16593;SDS011;8410;52.532;13.336;2023-11-21T02:08:36;35.10;;;17.90;;
16593;SDS011;8410;52.532;13.336;2023-11-21T02:11:04;28.93;;;17.73;;
16593;SDS011;8410;52.532;13.336;2023-11-21T02:13:33;21.23;;;12.87;;
16593;SDS011;8410;52.532;13.336;2023-11-21T02:16:01;23.53;;;15.23;;
16593;SDS011;8410;52.532;13.336;2023-11-21T02:18:30;19.60;;;12.30;;
16593;SDS011;8410;52.532;13.336;2023-11-21T02:20:57;16.03;;;11.83;;
16593;SDS011;8410;52.532;13.336;2023-11-21T02:23:26;14.03;;;10.87;;
16593;SDS011;8410;52.532;13.336;2023-11-21T02:25:55;15.17;;;12.47;;
16593;SDS011;8410;52.532;13.336;2023-11-21T02:28:23;13.70;;;10.97;;
16593;SDS011;8410;52.532;13.336;2023-11-21T02:30:52;14.10;;;12.50;;
16593;SDS011;8410;52.532;13.336;2023-11-21T02:33:22;12.80;;;11.43;;
16593;SDS011;8410;52.532;13.336;2023-11-21T02:35:49;14.80;;;13.27;;
16593;SDS011;8410;52.532;13.336;2023-11-21T02:38:21;12.63;;;11.33;;
16593;SDS011;8410;52.532;13.336;2023-11-21T02:40:50;13.27;;;11.87;;
16593;SDS011;8410;52.532;13.336;2023-11-21T02:43:18;12.50;;;11.30;;
16593;SDS011;8410;52.532;13.336;2023-11-21T02:45:45;12.60;;;11.40;;
16593;SDS011;8410;52.532;13.336;2023-11-21T02:48:13;14.07;;;12.77;;
16593;SDS011;8410;52.532;13.336;2023-11-21T02:50:40;11.07;;;10.03;;
16593;SDS011;8410;52.532;13.336;2023-11-21T02:53:09;14.30;;;12.90;;
16593;SDS011;8410;52.532;13.336;2023-11-21T02:55:37;14.10;;;12.63;;
16593;SDS011;8410;52.532;13.336;2023-11-21T02:58:05;12.20;;;10.97;;
16593;SDS011;8410;52.532;13.336;2023-11-21T03:00:33;13.03;;;10.33;;
16593;SDS011;8410;52.532;13.336;2023-11-21T03:03:00;12.63;;;11.33;;
16593;SDS011;8410;52.532;13.336;2023-11-21T03:05:28;12.73;;;11.10;;
16593;SDS011;8410;52.532;13.336;2023-11-21T03:07:56;15.40;;;10.33;;
16593;SDS011;8410;52.532;13.336;2023-11-21T03:10:23;11.50;;;10.37;;
16593;SDS011;8410;52.532;13.336;2023-11-21T03:12:51;13.10;;;11.90;;
16593;SDS011;8410;52.532;13.336;2023-11-21T03:15:20;13.23;;;11.93;;
16593;SDS011;8410;52.532;13.336;2023-11-21T03:17:47;13.40;;;11.93;;
16593;SDS011;8410;52.532;13.336;2023-11-21T03:20:16;14.77;;;10.73;;
16593;SDS011;8410;52.532;13.336;2023-11-21T03:22:44;11.70;;;10.60;;
16593;SDS011;8410;52.532;13.336;2023-11-21T03:25:11;11.67;;;10.57;;
16593;SDS011;8410;52.532;13.336;2023-11-21T03:27:39;10.90;;;9.80;;
16593;SDS011;8410;52.532;13.336;2023-11-21T03:30:07;14.03;;;12.63;;
16593;SDS011;8410;52.532;13.336;2023-11-21T03:32:38;13.23;;;12.03;;
16593;SDS011;8410;52.532;13.336;2023-11-21T03:35:06;15.17;;;13.00;;
16593;SDS011;8410;52.532;13.336;2023-11-21T03:37:34;14.27;;;12.40;;
16593;SDS011;8410;52.532;13.336;2023-11-21T03:40:02;14.00;;;12.70;;
16593;SDS011;8410;52.532;13.336;2023-11-21T03:42:30;15.53;;;14.03;;
16593;SDS011;8410;52.532;13.336;2023-11-21T03:44:58;13.73;;;12.43;;
16593;SDS011;8410;52.532;13.336;2023-11-21T03:47:25;11.80;;;10.57;;
16593;SDS011;8410;52.532;13.336;2023-11-21T03:49:54;14.23;;;12.73;;
16593;SDS011;8410;52.532;13.336;2023-11-21T03:52:22;11.37;;;10.17;;
16593;SDS011;8410;52.532;13.336;2023-11-21T03:54:49;13.30;;;12.00;;
16593;SDS011;8410;52.532;13.336;2023-11-21T03:57:17;13.47;;;12.17;;
16593;SDS011;8410;52.532;13.336;2023-11-21T03:59:44;15.17;;;12.63;;
16593;SDS011;8410;52.532;13.336;2023-11-21T04:02:12;15.27;;;13.87;;
16593;SDS011;8410;52.532;13.336;2023-11-21T04:04:39;16.00;;;14.33;;
16593;SDS011;8410;52.532;13.336;2023-11-21T04:07:09;12.57;;;11.20;;
16593;SDS011;8410;52.532;13.336;2023-11-21T04:09:37;14.23;;;12.93;;
16593;SDS011;8410;52.532;13.336;2023-11-21T04:12:04;15.47;;;13.17;;
16593;SDS011;8410;52.532;13.336;2023-11-21T04:14:32;12.27;;;10.97;;
16593;SDS011;8410;52.532;13.336;2023-11-21T04:17:00;12.90;;;11.70;;
16593;SDS011;8410;52.532;13.336;2023-11-21T04:19:28;13.70;;;12.30;;
16593;SDS011;8410;52.532;13.336;2023-11-21T04:21:55;16.87;;;15.17;;
16593;SDS011;8410;52.532;13.336;2023-11-21T04:24:24;14.20;;;12.70;;
16593;SDS011;8410;52.532;13.336;2023-11-21T04:26:52;14.97;;;13.47;;
16593;SDS011;8410;52.532;13.336;2023-11-21T04:29:19;13.30;;;11.90;;
16593;SDS011;8410;52.532;13.336;2023-11-21T04:31:47;12.90;;;11.60;;
16593;SDS011;8410;52.532;13.336;2023-11-21T04:34:15;15.80;;;13.97;;
16593;SDS011;8410;52.532;13.336;2023-11-21T04:36:42;16.43;;;14.67;;
16593;SDS011;8410;52.532;13.336;2023-11-21T04:39:10;15.93;;;14.27;;
16593;SDS011;8410;52.532;13.336;2023-11-21T04:41:39;14.47;;;13.03;;
16593;SDS011;8410;52.532;13.336;2023-11-21T04:44:06;15.23;;;13.73;;
16593;SDS011;8410;52.532;13.336;2023-11-21T04:46:34;16.23;;;14.60;;
16593;SDS011;8410;52.532;13.336;2023-11-21T04:49:01;15.00;;;13.47;;
16593;SDS011;8410;52.532;13.336;2023-11-21T04:51:29;14.40;;;12.90;;
16593;SDS011;8410;52.532;13.336;2023-11-21T04:53:58;13.80;;;11.70;;
16593;SDS011;8410;52.532;13.336;2023-11-21T04:56:26;13.10;;;10.57;;
16593;SDS011;8410;52.532;13.336;2023-11-21T04:58:54;11.77;;;10.53;;
16593;SDS011;8410;52.532;13.336;2023-11-21T05:01:22;10.03;;;9.03;;
16593;SDS011;8410;52.532;13.336;2023-11-21T05:03:50;10.57;;;9.53;;
16593;SDS011;8410;52.532;13.336;2023-11-21T05:06:19;10.23;;;9.20;;
16593;SDS011;8410;52.532;13.336;2023-11-21T05:08:46;11.50;;;10.40;;
16593;SDS011;8410;52.532;13.336;2023-11-21T05:11:22;10.23;;;9.23;;
16593;SDS011;8410;52.532;13.336;2023-11-21T05:13:50;11.00;;;9.97;;
16593;SDS011;8410;52.532;13.336;2023-11-21T05:16:20;9.67;;;8.77;;
16593;SDS011;8410;52.532;13.336;2023-11-21T05:18:48;11.10;;;10.00;;
16593;SDS011;8410;52.532;13.336;2023-11-21T05:21:17;10.83;;;9.43;;
16593;SDS011;8410;52.532;13.336;2023-11-21T05:23:47;12.73;;;11.50;;
16593;SDS011;8410;52.532;13.336;2023-11-21T05:26:14;11.67;;;10.53;;
16593;SDS011;8410;52.532;13.336;2023-11-21T05:28:42;12.47;;;11.17;;
16593;SDS011;8410;52.532;13.336;2023-11-21T05:31:09;11.83;;;10.73;;
16593;SDS011;8410;52.532;13.336;2023-11-21T05:33:44;12.43;;;10.03;;
16593;SDS011;8410;52.532;13.336;2023-11-21T05:36:11;10.17;;;9.17;;
16593;SDS011;8410;52.532;13.336;2023-11-21T05:38:39;8.63;;;7.73;;
16593;SDS011;8410;52.532;13.336;2023-11-21T05:41:07;12.63;;;11.43;;
16593;SDS011;8410;52.532;13.336;2023-11-21T05:43:37;11.93;;;10.70;;
16593;SDS011;8410;52.532;13.336;2023-11-21T05:46:04;13.73;;;12.33;;
16593;SDS011;8410;52.532;13.336;2023-11-21T05:48:33;9.87;;;8.87;;
16593;SDS011;8410;52.532;13.336;2023-11-21T05:51:05;10.03;;;9.00;;
16593;SDS011;8410;52.532;13.336;2023-11-21T05:53:34;10.63;;;9.53;;
16593;SDS011;8410;52.532;13.336;2023-11-21T05:56:02;9.57;;;8.20;;
16593;SDS011;8410;52.532;13.336;2023-11-21T05:58:30;8.67;;;7.70;;
16593;SDS011;8410;52.532;13.336;2023-11-21T06:00:58;9.77;;;7.77;;
16593;SDS011;8410;52.532;13.336;2023-11-21T06:03:25;9.80;;;8.80;;
16593;SDS011;8410;52.532;13.336;2023-11-21T06:05:53;7.93;;;7.23;;
16593;SDS011;8410;52.532;13.336;2023-11-21T06:08:22;8.87;;;7.97;;
16593;SDS011;8410;52.532;13.336;2023-11-21T06:10:50;9.57;;;8.67;;
16593;SDS011;8410;52.532;13.336;2023-11-21T06:13:18;8.47;;;7.53;;
16593;SDS011;8410;52.532;13.336;2023-11-21T06:15:50;8.30;;;7.47;;
16593;SDS011;8410;52.532;13.336;2023-11-21T06:18:17;7.30;;;6.57;;
16593;SDS011;8410;52.532;13.336;2023-11-21T06:20:46;6.90;;;6.20;;
16593;SDS011;8410;52.532;13.336;2023-11-21T06:23:14;10.70;;;6.50;;
16593;SDS011;8410;52.532;13.336;2023-11-21T06:25:44;8.60;;;7.03;;
16593;SDS011;8410;52.532;13.336;2023-11-21T06:28:11;7.23;;;6.53;;
16593;SDS011;8410;52.532;13.336;2023-11-21T06:30:39;6.43;;;5.83;;
16593;SDS011;8410;52.532;13.336;2023-11-21T06:33:06;5.83;;;5.27;;
16593;SDS011;8410;52.532;13.336;2023-11-21T06:35:34;7.30;;;5.47;;
16593;SDS011;8410;52.532;13.336;2023-11-21T06:38:01;7.17;;;5.43;;
16593;SDS011;8410;52.532;13.336;2023-11-21T06:40:29;6.03;;;4.97;;
16593;SDS011;8410;52.532;13.336;2023-11-21T06:42:59;5.00;;;4.43;;
16593;SDS011;8410;52.532;13.336;2023-11-21T06:45:25;5.60;;;5.10;;
16593;SDS011;8410;52.532;13.336;2023-11-21T06:47:53;5.73;;;5.23;;
16593;SDS011;8410;52.532;13.336;2023-11-21T06:50:21;6.03;;;5.40;;
16593;SDS011;8410;52.532;13.336;2023-11-21T06:52:48;7.07;;;5.93;;
16593;SDS011;8410;52.532;13.336;2023-11-21T06:55:16;5.73;;;4.87;;
16593;SDS011;8410;52.532;13.336;2023-11-21T06:57:43;6.87;;;5.67;;
16593;SDS011;8410;52.532;13.336;2023-11-21T07:00:13;6.63;;;5.77;;
16593;SDS011;8410;52.532;13.336;2023-11-21T07:02:44;7.83;;;5.70;;
16593;SDS011;8410;52.532;13.336;2023-11-21T07:05:12;7.20;;;5.23;;
16593;SDS011;8410;52.532;13.336;2023-11-21T07:07:40;5.77;;;5.27;;
16593;SDS011;8410;52.532;13.336;2023-11-21T07:10:08;6.23;;;5.63;;
16593;SDS011;8410;52.532;13.336;2023-11-21T07:12:36;5.50;;;5.00;;
16593;SDS011;8410;52.532;13.336;2023-11-21T07:15:03;6.70;;;6.10;;
16593;SDS011;8410;52.532;13.336;2023-11-21T07:17:36;6.33;;;5.70;;
16593;SDS011;8410;52.532;13.336;2023-11-21T07:20:07;7.63;;;5.80;;
16593;SDS011;8410;52.532;13.336;2023-11-21T07:22:35;6.47;;;5.87;;
16593;SDS011;8410;52.532;13.336;2023-11-21T07:25:03;5.53;;;4.60;;
16593;SDS011;8410;52.532;13.336;2023-11-21T07:27:31;5.60;;;5.03;;
16593;SDS011;8410;52.532;13.336;2023-11-21T07:30:00;6.00;;;5.40;;
16593;SDS011;8410;52.532;13.336;2023-11-21T07:32:29;5.73;;;5.13;;
16593;SDS011;8410;52.532;13.336;2023-11-21T07:34:58;5.80;;;5.07;;
16593;SDS011;8410;52.532;13.336;2023-11-21T07:37:27;6.63;;;6.03;;
16593;SDS011;8410;52.532;13.336;2023-11-21T07:39:55;5.67;;;5.07;;
16593;SDS011;8410;52.532;13.336;2023-11-21T07:42:23;5.87;;;5.27;;
16593;SDS011;8410;52.532;13.336;2023-11-21T07:44:52;5.90;;;5.30;;
16593;SDS011;8410;52.532;13.336;2023-11-21T07:47:20;6.60;;;5.60;;
16593;SDS011;8410;52.532;13.336;2023-11-21T07:49:47;5.30;;;4.80;;
16593;SDS011;8410;52.532;13.336;2023-11-21T07:52:16;5.27;;;4.73;;
16593;SDS011;8410;52.532;13.336;2023-11-21T07:54:44;5.73;;;5.17;;
16593;SDS011;8410;52.532;13.336;2023-11-21T07:57:11;5.20;;;4.70;;
16593;SDS011;8410;52.532;13.336;2023-11-21T07:59:39;6.57;;;5.00;;
16593;SDS011;8410;52.532;13.336;2023-11-21T08:02:07;6.57;;;5.57;;
16593;SDS011;8410;52.532;13.336;2023-11-21T08:04:35;5.03;;;4.57;;
16593;SDS011;8410;52.532;13.336;2023-11-21T08:07:03;6.30;;;5.70;;
16593;SDS011;8410;52.532;13.336;2023-11-21T08:09:32;5.57;;;5.00;;
16593;SDS011;8410;52.532;13.336;2023-11-21T08:12:00;6.67;;;6.07;;
16593;SDS011;8410;52.532;13.336;2023-11-21T08:14:29;7.53;;;6.80;;
16593;SDS011;8410;52.532;13.336;2023-11-21T08:16:56;7.83;;;6.13;;
16593;SDS011;8410;52.532;13.336;2023-11-21T08:19:25;6.67;;;5.97;;
16593;SDS011;8410;52.532;13.336;2023-11-21T08:21:53;7.63;;;5.53;;
16593;SDS011;8410;52.532;13.336;2023-11-21T08:24:21;7.00;;;6.10;;
16593;SDS011;8410;52.532;13.336;2023-11-21T08:26:50;6.27;;;5.60;;
16593;SDS011;8410;52.532;13.336;2023-11-21T08:29:18;5.73;;;5.20;;
16593;SDS011;8410;52.532;13.336;2023-11-21T08:31:46;6.67;;;5.20;;
16593;SDS011;8410;52.532;13.336;2023-11-21T08:34:14;7.03;;;6.33;;
16593;SDS011;8410;52.532;13.336;2023-11-21T08:36:42;7.37;;;5.83;;
16593;SDS011;8410;52.532;13.336;2023-11-21T08:39:10;6.93;;;5.70;;
16593;SDS011;8410;52.532;13.336;2023-11-21T08:41:39;5.47;;;4.90;;
16593;SDS011;8410;52.532;13.336;2023-11-21T08:44:07;6.07;;;5.40;;
16593;SDS011;8410;52.532;13.336;2023-11-21T08:46:35;6.70;;;6.10;;
16593;SDS011;8410;52.532;13.336;2023-11-21T08:49:03;5.77;;;5.27;;
16593;SDS011;8410;52.532;13.336;2023-11-21T08:51:30;5.57;;;5.00;;
16593;SDS011;8410;52.532;13.336;2023-11-21T08:53:58;6.40;;;5.77;;
16593;SDS011;8410;52.532;13.336;2023-11-21T08:56:28;6.73;;;5.80;;
16593;SDS011;8410;52.532;13.336;2023-11-21T08:58:55;7.03;;;6.33;;
16593;SDS011;8410;52.532;13.336;2023-11-21T09:01:24;7.23;;;6.57;;
16593;SDS011;8410;52.532;13.336;2023-11-21T09:03:52;6.00;;;5.40;;
16593;SDS011;8410;52.532;13.336;2023-11-21T09:06:20;6.57;;;5.77;;
16593;SDS011;8410;52.532;13.336;2023-11-21T09:08:47;7.87;;;6.40;;
16593;SDS011;8410;52.532;13.336;2023-11-21T09:11:15;6.57;;;5.90;;
16593;SDS011;8410;52.532;13.336;2023-11-21T09:13:42;6.90;;;5.50;;
16593;SDS011;8410;52.532;13.336;2023-11-21T09:16:10;6.00;;;5.40;;
16593;SDS011;8410;52.532;13.336;2023-11-21T09:18:39;6.57;;;5.97;;
16593;SDS011;8410;52.532;13.336;2023-11-21T09:21:06;7.40;;;6.00;;
16593;SDS011;8410;52.532;13.336;2023-11-21T09:23:35;7.73;;;5.60;;
16593;SDS011;8410;52.532;13.336;2023-11-21T09:26:03;6.07;;;4.83;;
16593;SDS011;8410;52.532;13.336;2023-11-21T09:28:31;8.17;;;5.30;;
16593;SDS011;8410;52.532;13.336;2023-11-21T09:30:59;7.23;;;5.23;;
16593;SDS011;8410;52.532;13.336;2023-11-21T09:33:29;8.00;;;5.53;;
16593;SDS011;8410;52.532;13.336;2023-11-21T09:35:58;8.13;;;6.40;;
16593;SDS011;8410;52.532;13.336;2023-11-21T09:38:26;10.07;;;6.57;;
16593;SDS011;8410;52.532;13.336;2023-11-21T09:40:55;11.40;;;6.70;;
16593;SDS011;8410;52.532;13.336;2023-11-21T09:43:24;10.27;;;6.80;;
16593;SDS011;8410;52.532;13.336;2023-11-21T09:45:56;11.57;;;7.33;;
16593;SDS011;8410;52.532;13.336;2023-11-21T09:48:28;13.17;;;8.73;;
16593;SDS011;8410;52.532;13.336;2023-11-21T09:50:59;10.87;;;6.30;;
16593;SDS011;8410;52.532;13.336;2023-11-21T09:53:29;16.50;;;10.07;;
16593;SDS011;8410;52.532;13.336;2023-11-21T09:55:59;16.03;;;11.20;;
16593;SDS011;8410;52.532;13.336;2023-11-21T09:58:28;16.50;;;10.47;;
16593;SDS011;8410;52.532;13.336;2023-11-21T10:00:57;17.50;;;11.40;;
16593;SDS011;8410;52.532;13.336;2023-11-21T10:03:26;16.53;;;8.87;;
16593;SDS011;8410;52.532;13.336;2023-11-21T10:05:54;16.27;;;9.73;;
16593;SDS011;8410;52.532;13.336;2023-11-21T10:08:27;18.20;;;10.43;;
16593;SDS011;8410;52.532;13.336;2023-11-21T10:11:12;15.33;;;9.33;;
16593;SDS011;8410;52.532;13.336;2023-11-21T10:13:42;16.50;;;9.80;;
16593;SDS011;8410;52.532;13.336;2023-11-21T10:16:13;16.50;;;9.40;;
16593;SDS011;8410;52.532;13.336;2023-11-21T10:18:43;14.33;;;9.37;;
16593;SDS011;8410;52.532;13.336;2023-11-21T10:21:12;12.57;;;9.80;;
16593;SDS011;8410;52.532;13.336;2023-11-21T10:23:41;13.03;;;8.27;;
16593;SDS011;8410;52.532;13.336;2023-11-21T10:26:10;14.70;;;8.33;;
16593;SDS011;8410;52.532;13.336;2023-11-21T10:28:56;18.23;;;10.17;;
16593;SDS011;8410;52.532;13.336;2023-11-21T10:31:26;15.10;;;9.47;;
16593;SDS011;8410;52.532;13.336;2023-11-21T10:33:54;13.97;;;9.50;;
16593;SDS011;8410;52.532;13.336;2023-11-21T10:36:25;15.87;;;8.83;;
16593;SDS011;8410;52.532;13.336;2023-11-21T10:38:55;9.13;;;5.33;;
16593;SDS011;8410;52.532;13.336;2023-11-21T10:41:23;9.50;;;6.53;;
16593;SDS011;8410;52.532;13.336;2023-11-21T10:43:52;11.27;;;7.20;;
16593;SDS011;8410;52.532;13.336;2023-11-21T10:46:22;11.23;;;7.50;;
16593;SDS011;8410;52.532;13.336;2023-11-21T10:48:52;10.33;;;6.30;;
16593;SDS011;8410;52.532;13.336;2023-11-21T10:51:20;9.10;;;4.10;;
16593;SDS011;8410;52.532;13.336;2023-11-21T10:53:48;7.23;;;5.40;;
16593;SDS011;8410;52.532;13.336;2023-11-21T10:56:18;8.53;;;5.63;;
16593;SDS011;8410;52.532;13.336;2023-11-21T10:58:47;9.97;;;6.97;;
16593;SDS011;8410;52.532;13.336;2023-11-21T11:01:16;10.43;;;7.07;;
16593;SDS011;8410;52.532;13.336;2023-11-21T11:03:47;9.03;;;6.40;;
16593;SDS011;8410;52.532;13.336;2023-11-21T11:06:16;9.97;;;7.00;;
16593;SDS011;8410;52.532;13.336;2023-11-21T11:08:43;7.33;;;6.50;;
16593;SDS011;8410;52.532;13.336;2023-11-21T11:11:12;6.87;;;4.60;;
16593;SDS011;8410;52.532;13.336;2023-11-21T11:13:44;4.50;;;4.10;;
16593;SDS011;8410;52.532;13.336;2023-11-21T11:16:13;4.30;;;3.90;;
16593;SDS011;8410;52.532;13.336;2023-11-21T11:18:43;3.40;;;3.13;;
16593;SDS011;8410;52.532;13.336;2023-11-21T11:21:17;4.00;;;3.43;;
16593;SDS011;8410;52.532;13.336;2023-11-21T11:24:00;4.70;;;3.30;;
16593;SDS011;8410;52.532;13.336;2023-11-21T11:26:46;3.47;;;3.10;;
16593;SDS011;8410;52.532;13.336;2023-11-21T11:29:22;3.23;;;2.93;;
16593;SDS011;8410;52.532;13.336;2023-11-21T11:31:59;3.30;;;3.00;;
16593;SDS011;8410;52.532;13.336;2023-11-21T11:34:36;2.30;;;2.10;;
16593;SDS011;8410;52.532;13.336;2023-11-21T11:37:11;2.63;;;2.00;;
16593;SDS011;8410;52.532;13.336;2023-11-21T11:39:40;3.10;;;2.60;;
16593;SDS011;8410;52.532;13.336;2023-11-21T11:42:11;2.77;;;2.57;;
16593;SDS011;8410;52.532;13.336;2023-11-21T11:44:51;3.50;;;3.20;;
16593;SDS011;8410;52.532;13.336;2023-11-21T11:47:22;3.97;;;3.57;;
16593;SDS011;8410;52.532;13.336;2023-11-21T11:50:03;3.10;;;2.80;;
16593;SDS011;8410;52.532;13.336;2023-11-21T11:52:40;5.30;;;3.10;;
16593;SDS011;8410;52.532;13.336;2023-11-21T11:55:10;3.90;;;3.57;;
16593;SDS011;8410;52.532;13.336;2023-11-21T11:57:39;4.43;;;3.27;;
16593;SDS011;8410;52.532;13.336;2023-11-21T12:00:10;4.03;;;3.63;;
16593;SDS011;8410;52.532;13.336;2023-11-21T12:02:51;4.40;;;3.93;;
16593;SDS011;8410;52.532;13.336;2023-11-21T12:05:20;4.20;;;3.80;;
16593;SDS011;8410;52.532;13.336;2023-11-21T12:07:50;3.90;;;3.20;;
16593;SDS011;8410;52.532;13.336;2023-11-21T12:10:20;4.70;;;4.23;;
16593;SDS011;8410;52.532;13.336;2023-11-21T12:12:51;3.50;;;3.20;;
16593;SDS011;8410;52.532;13.336;2023-11-21T12:15:21;4.67;;;3.53;;
16593;SDS011;8410;52.532;13.336;2023-11-21T12:17:50;4.37;;;3.83;;
16593;SDS011;8410;52.532;13.336;2023-11-21T12:20:18;5.40;;;4.63;;
16593;SDS011;8410;52.532;13.336;2023-11-21T12:22:47;5.77;;;5.27;;
16593;SDS011;8410;52.532;13.336;2023-11-21T12:25:16;5.20;;;4.70;;
16593;SDS011;8410;52.532;13.336;2023-11-21T12:27:45;6.43;;;5.60;;
16593;SDS011;8410;52.532;13.336;2023-11-21T12:30:16;5.50;;;5.00;;
16593;SDS011;8410;52.532;13.336;2023-11-21T12:32:49;4.63;;;4.23;;
16593;SDS011;8410;52.532;13.336;2023-11-21T12:35:18;8.20;;;5.07;;
16593;SDS011;8410;52.532;13.336;2023-11-21T12:37:47;4.67;;;4.10;;
16593;SDS011;8410;52.532;13.336;2023-11-21T12:40:15;5.37;;;4.70;;
16593;SDS011;8410;52.532;13.336;2023-11-21T12:42:44;5.17;;;4.20;;
16593;SDS011;8410;52.532;13.336;2023-11-21T12:45:18;4.83;;;4.33;;
16593;SDS011;8410;52.532;13.336;2023-11-21T12:47:49;4.53;;;4.13;;
16593;SDS011;8410;52.532;13.336;2023-11-21T12:50:20;7.03;;;4.47;;
16593;SDS011;8410;52.532;13.336;2023-11-21T12:52:50;5.37;;;4.70;;
16593;SDS011;8410;52.532;13.336;2023-11-21T12:55:20;5.20;;;4.50;;
16593;SDS011;8410;52.532;13.336;2023-11-21T12:57:49;5.33;;;4.70;;
16593;SDS011;8410;52.532;13.336;2023-11-21T13:00:22;4.50;;;4.10;;
16593;SDS011;8410;52.532;13.336;2023-11-21T13:02:58;4.67;;;4.20;;
16593;SDS011;8410;52.532;13.336;2023-11-21T13:05:29;6.07;;;5.17;;
16593;SDS011;8410;52.532;13.336;2023-11-21T13:07:58;5.90;;;4.70;;
16593;SDS011;8410;52.532;13.336;2023-11-21T13:10:29;6.50;;;5.90;;
16593;SDS011;8410;52.532;13.336;2023-11-21T13:12:59;6.53;;;5.77;;
16593;SDS011;8410;52.532;13.336;2023-11-21T13:15:31;7.70;;;6.90;;
16593;SDS011;8410;52.532;13.336;2023-11-21T13:18:02;9.37;;;6.97;;
16593;SDS011;8410;52.532;13.336;2023-11-21T13:20:30;10.17;;;7.10;;
16593;SDS011;8410;52.532;13.336;2023-11-21T13:22:58;12.07;;;8.80;;
16593;SDS011;8410;52.532;13.336;2023-11-21T13:25:27;10.33;;;7.60;;
16593;SDS011;8410;52.532;13.336;2023-11-21T13:27:55;10.73;;;7.87;;
16593;SDS011;8410;52.532;13.336;2023-11-21T13:30:24;10.80;;;8.47;;
16593;SDS011;8410;52.532;13.336;2023-11-21T13:32:54;12.40;;;10.07;;
16593;SDS011;8410;52.532;13.336;2023-11-21T13:35:24;10.97;;;8.60;;
16593;SDS011;8410;52.532;13.336;2023-11-21T13:38:03;13.60;;;9.00;;
16593;SDS011;8410;52.532;13.336;2023-11-21T13:40:33;13.70;;;9.80;;
16593;SDS011;8410;52.532;13.336;2023-11-21T13:43:09;14.90;;;9.80;;
16593;SDS011;8410;52.532;13.336;2023-11-21T13:45:36;12.80;;;9.97;;
16593;SDS011;8410;52.532;13.336;2023-11-21T13:48:07;13.77;;;9.83;;
16593;SDS011;8410;52.532;13.336;2023-11-21T13:50:39;15.07;;;12.43;;
16593;SDS011;8410;52.532;13.336;2023-11-21T13:53:14;18.20;;;13.90;;
16593;SDS011;8410;52.532;13.336;2023-11-21T13:55:47;17.63;;;12.60;;
16593;SDS011;8410;52.532;13.336;2023-11-21T13:58:15;17.20;;;11.77;;
16593;SDS011;8410;52.532;13.336;2023-11-21T14:00:48;21.47;;;14.40;;
16593;SDS011;8410;52.532;13.336;2023-11-21T14:03:22;27.07;;;17.37;;
16593;SDS011;8410;52.532;13.336;2023-11-21T14:06:00;23.53;;;17.90;;
16593;SDS011;8410;52.532;13.336;2023-11-21T14:08:35;27.27;;;18.00;;
16593;SDS011;8410;52.532;13.336;2023-11-21T14:11:02;27.37;;;16.93;;
16593;SDS011;8410;52.532;13.336;2023-11-21T14:13:33;32.47;;;22.63;;
16593;SDS011;8410;52.532;13.336;2023-11-21T14:16:00;30.23;;;18.17;;
16593;SDS011;8410;52.532;13.336;2023-11-21T14:18:28;25.53;;;18.60;;
16593;SDS011;8410;52.532;13.336;2023-11-21T14:21:03;26.80;;;19.70;;
16593;SDS011;8410;52.532;13.336;2023-11-21T14:23:31;26.10;;;17.93;;
16593;SDS011;8410;52.532;13.336;2023-11-21T14:26:02;27.07;;;18.53;;
16593;SDS011;8410;52.532;13.336;2023-11-21T14:28:30;21.53;;;15.80;;
16593;SDS011;8410;52.532;13.336;2023-11-21T14:30:58;22.17;;;16.90;;
16593;SDS011;8410;52.532;13.336;2023-11-21T14:33:25;33.20;;;16.07;;
16593;SDS011;8410;52.532;13.336;2023-11-21T14:35:53;19.53;;;16.23;;
16593;SDS011;8410;52.532;13.336;2023-11-21T14:38:22;18.07;;;15.07;;
16593;SDS011;8410;52.532;13.336;2023-11-21T14:40:49;16.63;;;12.67;;
16593;SDS011;8410;52.532;13.336;2023-11-21T14:43:17;17.97;;;14.87;;